createdAt,value
2022-11-16T00:01:31.046Z,3.13
2022-11-16T00:04:32.804Z,2.43
2022-11-16T00:07:34.504Z,3.00
2022-11-16T00:10:36.223Z,2.83
2022-11-16T00:13:38.990Z,2.63
2022-11-16T00:16:40.934Z,2.93
2022-11-16T00:19:42.620Z,3.17
2022-11-16T00:22:44.274Z,2.90
2022-11-16T00:25:46.136Z,2.93
2022-11-16T00:28:48.814Z,2.67
2022-11-16T00:31:51.029Z,2.87
2022-11-16T00:34:52.678Z,2.87
2022-11-16T00:37:54.351Z,2.87
2022-11-16T00:40:56.216Z,2.67
2022-11-16T00:43:57.890Z,2.73
2022-11-16T00:46:59.543Z,3.03
2022-11-16T00:50:01.354Z,2.57
2022-11-16T00:53:03.702Z,2.83
2022-11-16T00:56:05.560Z,2.43
2022-11-16T00:59:12.981Z,2.43
2022-11-16T01:02:16.809Z,2.67
2022-11-16T01:05:18.599Z,2.50
2022-11-16T01:08:20.265Z,2.63
2022-11-16T01:11:40.726Z,2.40
2022-11-16T01:14:44.812Z,3.17
2022-11-16T01:17:47.048Z,3.10
2022-11-16T01:20:48.706Z,2.67
2022-11-16T01:23:51.318Z,2.27
2022-11-16T01:26:56.893Z,2.17
2022-11-16T01:29:59.450Z,2.60
2022-11-16T01:33:01.873Z,2.53
2022-11-16T01:36:14.155Z,2.80
2022-11-16T01:39:17.048Z,2.37
2022-11-16T01:42:29.874Z,2.40
2022-11-16T01:45:38.833Z,3.20
2022-11-16T01:48:43.036Z,2.90
2022-11-16T01:51:59.291Z,2.80
2022-11-16T01:55:02.723Z,3.10
2022-11-16T01:58:18.959Z,2.50
2022-11-16T02:01:24.313Z,3.13
2022-11-16T02:04:30.248Z,3.40
2022-11-16T02:08:02.881Z,3.33
2022-11-16T02:11:27.649Z,3.73
2022-11-16T02:14:42.206Z,2.97
2022-11-16T02:18:03.220Z,3.50
2022-11-16T02:21:17.444Z,3.50
2022-11-16T02:24:42.176Z,3.60
2022-11-16T02:28:04.649Z,3.27
2022-11-16T02:31:12.564Z,3.43
2022-11-16T02:34:17.916Z,3.50
2022-11-16T02:37:23.030Z,4.37
2022-11-16T02:40:30.647Z,4.07
2022-11-16T02:43:37.623Z,4.00
2022-11-16T02:46:45.596Z,3.37
2022-11-16T02:49:51.559Z,4.00
2022-11-16T02:52:53.340Z,3.77
2022-11-16T02:55:56.318Z,3.43
2022-11-16T02:58:59.424Z,4.10
2022-11-16T03:02:29.736Z,3.30
2022-11-16T03:05:37.548Z,4.90
2022-11-16T03:09:07.311Z,4.80
2022-11-16T03:12:14.530Z,4.50
2022-11-16T03:15:16.515Z,5.03
2022-11-16T03:18:20.274Z,4.50
2022-11-16T03:21:30.500Z,4.70
2022-11-16T03:24:32.905Z,4.70
2022-11-16T03:27:44.904Z,4.83
2022-11-16T03:30:54.287Z,4.80
2022-11-16T03:34:00.621Z,4.97
2022-11-16T03:37:04.029Z,4.97
2022-11-16T03:40:07.882Z,5.40
2022-11-16T03:43:10.751Z,4.90
2022-11-16T03:46:16.530Z,4.70
2022-11-16T03:49:24.057Z,5.70
2022-11-16T03:52:28.274Z,5.20
2022-11-16T03:55:30.059Z,5.27
2022-11-16T03:58:32.233Z,5.47
2022-11-16T04:01:34.258Z,6.00
2022-11-16T04:04:54.750Z,5.17
2022-11-16T04:08:16.259Z,5.30
2022-11-16T04:11:39.718Z,4.50
2022-11-16T04:15:02.160Z,4.53
2022-11-16T04:18:27.127Z,5.10
2022-11-16T04:22:12.266Z,5.80
2022-11-16T04:25:25.418Z,4.93
2022-11-16T04:28:34.313Z,5.43
2022-11-16T04:31:57.447Z,5.03
2022-11-16T04:35:18.370Z,5.40
2022-11-16T04:38:21.037Z,5.43
2022-11-16T04:41:42.111Z,5.53
2022-11-16T04:45:02.633Z,5.10
2022-11-16T04:48:12.348Z,5.23
2022-11-16T04:51:14.931Z,5.40
2022-11-16T04:54:18.003Z,5.07
2022-11-16T04:57:20.219Z,4.33
2022-11-16T05:00:24.231Z,5.33
2022-11-16T05:03:26.442Z,4.67
2022-11-16T05:06:28.136Z,4.37
2022-11-16T05:09:30.180Z,4.90
2022-11-16T05:12:32.657Z,5.53
2022-11-16T05:15:36.817Z,4.27
2022-11-16T05:18:38.964Z,4.07
2022-11-16T05:21:41.142Z,3.50
2022-11-16T05:24:44.657Z,4.83
2022-11-16T05:27:46.388Z,3.43
2022-11-16T05:30:48.058Z,3.20
2022-11-16T05:33:54.507Z,1.90
2022-11-16T05:36:57.875Z,2.23
2022-11-16T05:39:59.694Z,1.73
2022-11-16T05:43:12.016Z,2.27
2022-11-16T05:46:22.953Z,1.70
2022-11-16T05:49:24.792Z,2.10
2022-11-16T05:52:27.964Z,1.80
2022-11-16T05:55:35.877Z,1.90
2022-11-16T05:58:37.712Z,1.67
2022-11-16T06:01:40.939Z,1.70
2022-11-16T06:04:43.206Z,1.57
2022-11-16T06:07:44.916Z,1.40
2022-11-16T06:10:47.324Z,1.20
2022-11-16T06:13:49.261Z,1.50
2022-11-16T06:16:51.911Z,1.40
2022-11-16T06:19:54.679Z,1.20
2022-11-16T06:22:56.650Z,1.20
2022-11-16T06:25:58.461Z,1.60
2022-11-16T06:29:02.011Z,1.80
2022-11-16T06:32:03.770Z,1.30
2022-11-16T06:35:06.492Z,1.33
2022-11-16T06:38:08.752Z,1.87
2022-11-16T06:41:10.539Z,1.37
2022-11-16T06:44:17.944Z,1.83
2022-11-16T06:47:28.541Z,1.93
2022-11-16T06:50:30.332Z,2.10
2022-11-16T06:53:32.611Z,1.60
2022-11-16T06:56:35.988Z,1.93
2022-11-16T06:59:37.732Z,1.47
2022-11-16T07:02:40.222Z,1.83
2022-11-16T07:05:45.769Z,2.17
2022-11-16T07:08:51.328Z,2.00
2022-11-16T07:11:58.375Z,2.73
2022-11-16T07:15:00.124Z,2.80
2022-11-16T07:18:06.235Z,2.83
2022-11-16T07:21:12.449Z,2.93
2022-11-16T07:24:14.386Z,2.80
2022-11-16T07:27:17.335Z,2.70
2022-11-16T07:30:23.129Z,3.37
2022-11-16T07:33:46.831Z,3.57
2022-11-16T07:37:14.694Z,4.37
2022-11-16T07:40:16.490Z,4.20
2022-11-16T07:43:19.680Z,3.50
2022-11-16T07:46:47.003Z,4.37
2022-11-16T07:49:50.443Z,5.10
2022-11-16T07:52:56.268Z,4.50
2022-11-16T07:55:57.998Z,5.27
2022-11-16T07:59:02.316Z,5.40
2022-11-16T08:02:12.295Z,5.33
2022-11-16T08:05:15.844Z,4.97
2022-11-16T08:08:17.578Z,5.13
2022-11-16T08:11:19.461Z,4.53
2022-11-16T08:14:21.411Z,4.60
2022-11-16T08:17:25.031Z,4.83
2022-11-16T08:20:28.595Z,5.27
2022-11-16T08:23:31.031Z,5.33
2022-11-16T08:26:33.400Z,5.30
2022-11-16T08:29:41.253Z,6.97
2022-11-16T08:32:45.571Z,5.53
2022-11-16T08:35:48.657Z,6.30
2022-11-16T08:38:52.265Z,6.30
2022-11-16T08:41:56.088Z,6.80
2022-11-16T08:44:57.926Z,7.50
2022-11-16T08:48:03.956Z,6.40
2022-11-16T08:51:19.711Z,6.37
2022-11-16T08:54:29.558Z,7.13
2022-11-16T08:57:31.855Z,7.03
2022-11-16T09:00:38.269Z,6.50
2022-11-16T09:03:40.350Z,6.83
2022-11-16T09:06:42.020Z,6.77
2022-11-16T09:09:43.697Z,6.57
2022-11-16T09:12:45.349Z,5.53
2022-11-16T09:15:47.070Z,6.00
2022-11-16T09:18:50.510Z,5.70
2022-11-16T09:21:52.197Z,4.97
2022-11-16T09:24:53.850Z,4.30
2022-11-16T09:27:55.843Z,3.77
2022-11-16T09:31:01.960Z,3.83
2022-11-16T09:34:04.286Z,2.83
2022-11-16T09:37:06.010Z,2.50
2022-11-16T09:40:08.247Z,3.20
2022-11-16T09:43:42.481Z,2.87
2022-11-16T09:46:53.660Z,2.60
2022-11-16T09:50:03.578Z,2.40
2022-11-16T09:53:16.339Z,1.37
2022-11-16T09:56:26.541Z,1.70
2022-11-16T09:59:37.800Z,1.33
2022-11-16T10:02:47.654Z,1.27
2022-11-16T10:06:05.714Z,1.17
2022-11-16T10:09:11.035Z,0.97
2022-11-16T10:12:21.738Z,0.83
2022-11-16T10:15:35.127Z,1.10
2022-11-16T10:18:54.295Z,1.57
2022-11-16T10:22:06.711Z,1.57
2022-11-16T10:25:22.908Z,1.40
2022-11-16T10:28:49.023Z,1.00
2022-11-16T10:31:57.306Z,1.60
2022-11-16T10:35:11.408Z,1.00
2022-11-16T10:38:32.291Z,1.10
2022-11-16T10:41:46.008Z,1.50
2022-11-16T10:45:02.438Z,1.07
2022-11-16T10:48:23.620Z,1.20
2022-11-16T10:51:25.362Z,1.13
2022-11-16T10:54:27.010Z,1.07
2022-11-16T10:58:01.589Z,1.10
2022-11-16T11:01:10.721Z,1.10
2022-11-16T11:04:29.419Z,0.97
2022-11-16T11:07:34.054Z,1.17
2022-11-16T11:10:41.295Z,0.97
2022-11-16T11:13:42.999Z,0.93
2022-11-16T11:16:44.676Z,1.43
2022-11-16T11:19:46.335Z,1.07
2022-11-16T11:22:55.007Z,3.30
2022-11-16T11:26:00.774Z,0.97
2022-11-16T11:29:24.574Z,1.20
2022-11-16T11:32:32.737Z,0.80
2022-11-16T11:35:34.688Z,0.73
2022-11-16T11:39:00.151Z,0.70
2022-11-16T11:42:20.953Z,0.93
2022-11-16T11:45:49.275Z,1.10
2022-11-16T11:49:09.681Z,0.70
2022-11-16T11:52:37.647Z,0.80
2022-11-16T11:55:39.546Z,1.10
2022-11-16T11:58:42.422Z,0.70
2022-11-16T12:01:55.935Z,1.17
2022-11-16T12:05:15.695Z,0.93
2022-11-16T12:08:36.571Z,1.33
2022-11-16T12:11:48.822Z,0.80
2022-11-16T12:15:00.605Z,0.77
2022-11-16T12:18:05.001Z,1.07
2022-11-16T12:21:14.762Z,0.73
2022-11-16T12:24:35.075Z,0.90
2022-11-16T12:27:56.590Z,0.83
2022-11-16T12:31:22.004Z,1.30
2022-11-16T12:34:38.664Z,0.67
2022-11-16T12:38:09.273Z,1.07
2022-11-16T12:41:10.866Z,0.90
2022-11-16T12:44:39.680Z,0.97
2022-11-16T12:47:57.452Z,0.73
2022-11-16T12:50:59.072Z,1.57
2022-11-16T12:54:26.161Z,0.87
2022-11-16T12:57:55.260Z,0.70
2022-11-16T13:01:13.107Z,0.90
2022-11-16T13:04:28.311Z,1.00
2022-11-16T13:07:57.503Z,0.67
2022-11-16T13:11:13.130Z,0.70
2022-11-16T13:14:20.064Z,0.80
2022-11-16T13:17:32.480Z,0.77
2022-11-16T13:20:54.611Z,0.67
2022-11-16T13:24:23.585Z,1.17
2022-11-16T13:27:28.151Z,1.47
2022-11-16T13:30:46.379Z,0.80
2022-11-16T13:33:53.281Z,0.90
2022-11-16T13:36:55.026Z,0.93
2022-11-16T13:39:59.681Z,0.97
2022-11-16T13:43:05.135Z,1.10
2022-11-16T13:46:07.007Z,0.80
2022-11-16T13:49:31.988Z,0.60
2022-11-16T13:53:46.341Z,0.97
2022-11-16T13:56:10.910Z,1.30
2022-11-16T13:59:16.275Z,1.13
2022-11-16T14:02:36.512Z,1.23
2022-11-16T14:05:41.874Z,1.03
2022-11-16T14:08:44.634Z,0.50
2022-11-16T14:11:46.276Z,0.73
2022-11-16T14:15:12.658Z,1.20
2022-11-16T14:18:14.272Z,1.00
2022-11-16T14:21:48.736Z,0.70
2022-11-16T14:25:00.354Z,1.03
2022-11-16T14:28:22.635Z,0.70
2022-11-16T14:31:29.155Z,1.07
2022-11-16T14:34:44.511Z,0.73
2022-11-16T14:37:56.588Z,1.20
2022-11-16T14:41:01.969Z,1.20
2022-11-16T14:44:03.663Z,1.63
2022-11-16T14:47:06.023Z,1.30
2022-11-16T14:50:24.739Z,1.60
2022-11-16T14:53:28.158Z,1.73
2022-11-16T14:56:29.900Z,1.40
2022-11-16T14:59:32.061Z,0.73
2022-11-16T15:02:34.674Z,0.63
2022-11-16T15:05:37.310Z,1.03
2022-11-16T15:08:44.404Z,1.30
2022-11-16T15:12:07.593Z,1.60
2022-11-16T15:15:12.062Z,1.20
2022-11-16T15:18:18.210Z,1.00
2022-11-16T15:21:23.441Z,1.00
2022-11-16T15:24:30.961Z,0.90
2022-11-16T15:27:43.048Z,2.13
2022-11-16T15:30:48.367Z,1.87
2022-11-16T15:33:50.377Z,1.50
2022-11-16T15:36:52.114Z,1.87
2022-11-16T15:39:54.630Z,1.37
2022-11-16T15:42:59.327Z,1.10
2022-11-16T15:46:02.010Z,1.20
2022-11-16T15:49:03.959Z,1.30
2022-11-16T15:52:05.769Z,1.87
2022-11-16T15:55:32.105Z,1.57
2022-11-16T15:58:38.138Z,1.40
2022-11-16T16:01:44.969Z,1.53
2022-11-16T16:04:46.858Z,1.50
2022-11-16T16:07:48.850Z,1.43
2022-11-16T16:11:00.463Z,1.50
2022-11-16T16:14:04.364Z,1.87
2022-11-16T16:17:06.031Z,1.57
2022-11-16T16:20:16.223Z,1.23
2022-11-16T16:23:25.405Z,1.27
2022-11-16T16:26:27.072Z,1.30
2022-11-16T16:29:28.754Z,0.80
2022-11-16T16:32:35.451Z,1.00
2022-11-16T16:35:37.149Z,1.13
2022-11-16T16:38:38.871Z,1.03
2022-11-16T16:41:40.535Z,1.43
2022-11-16T16:44:43.513Z,2.83
2022-11-16T16:47:45.436Z,2.37
2022-11-16T16:50:54.740Z,1.90
2022-11-16T16:54:04.192Z,1.87
2022-11-16T16:57:23.621Z,1.33
2022-11-16T17:00:35.598Z,1.30
2022-11-16T17:03:40.972Z,1.67
2022-11-16T17:06:50.485Z,1.33
2022-11-16T17:10:24.050Z,1.23
2022-11-16T17:13:33.736Z,2.00
2022-11-16T17:16:44.181Z,1.40
2022-11-16T17:19:50.272Z,1.20
2022-11-16T17:23:03.021Z,1.20
2022-11-16T17:26:10.071Z,1.10
2022-11-16T17:29:33.534Z,1.33
2022-11-16T17:32:53.393Z,1.30
2022-11-16T17:36:21.684Z,1.13
2022-11-16T17:39:35.957Z,1.10
2022-11-16T17:42:48.505Z,1.33
2022-11-16T17:46:12.829Z,1.17
2022-11-16T17:49:28.111Z,2.03
2022-11-16T17:52:38.954Z,1.37
2022-11-16T17:56:04.753Z,1.60
2022-11-16T17:59:16.150Z,1.57
2022-11-16T18:02:20.909Z,1.30
2022-11-16T18:05:41.451Z,1.47
2022-11-16T18:08:48.557Z,2.00
2022-11-16T18:12:07.356Z,2.03
2022-11-16T18:15:27.875Z,1.53
2022-11-16T18:18:31.112Z,1.63
2022-11-16T18:21:44.661Z,1.50
2022-11-16T18:24:50.845Z,1.70
2022-11-16T18:28:07.183Z,2.40
2022-11-16T18:31:24.088Z,1.53
2022-11-16T18:34:28.154Z,2.07
2022-11-16T18:37:30.189Z,1.80
2022-11-16T18:44:06.508Z,1.77
2022-11-16T18:47:11.486Z,2.00
2022-11-16T18:50:46.695Z,1.97
2022-11-16T18:53:58.142Z,1.53
2022-11-16T18:57:06.999Z,1.57
2022-11-16T19:00:10.779Z,1.20
2022-11-16T19:03:12.894Z,2.43
2022-11-16T19:06:17.043Z,2.00
2022-11-16T19:09:18.863Z,1.87
2022-11-16T19:12:20.839Z,1.53
2022-11-16T19:15:25.828Z,2.13
2022-11-16T19:18:37.383Z,2.30
2022-11-16T19:21:49.395Z,1.87
2022-11-16T19:25:05.876Z,1.93
2022-11-16T19:28:32.194Z,2.03
2022-11-16T19:31:34.290Z,2.27
2022-11-16T19:34:36.029Z,2.83
2022-11-16T19:37:40.805Z,2.90
2022-11-16T19:41:06.733Z,2.37
2022-11-16T19:47:50.531Z,2.20
2022-11-16T19:50:52.275Z,2.43
2022-11-16T19:53:59.313Z,2.53
2022-11-16T19:57:01.195Z,2.20
2022-11-16T20:00:10.034Z,2.00
2022-11-16T20:03:15.856Z,2.53
2022-11-16T20:06:46.544Z,2.50
2022-11-16T20:09:53.580Z,2.13
2022-11-16T20:12:58.209Z,1.97
2022-11-16T20:16:01.436Z,2.37
2022-11-16T20:19:04.069Z,1.90
2022-11-16T20:22:05.901Z,2.57
2022-11-16T20:25:08.066Z,2.30
2022-11-16T20:28:10.004Z,2.83
2022-11-16T20:31:15.012Z,2.90
2022-11-16T20:34:17.536Z,2.37
2022-11-16T20:37:22.892Z,1.70
2022-11-16T20:40:27.098Z,2.23
2022-11-16T20:43:39.263Z,2.80
2022-11-16T20:46:58.930Z,2.17
2022-11-16T20:50:03.267Z,2.30
2022-11-16T20:53:07.160Z,1.93
2022-11-16T20:56:16.799Z,1.90
2022-11-16T20:59:19.072Z,1.53
2022-11-16T21:02:20.785Z,1.90
2022-11-16T21:05:22.567Z,1.70
2022-11-16T21:08:25.330Z,1.63
2022-11-16T21:11:29.836Z,1.53
2022-11-16T21:14:38.392Z,1.53
2022-11-16T21:17:50.724Z,1.30
2022-11-16T21:21:29.547Z,2.20
2022-11-16T21:24:34.806Z,1.90
2022-11-16T21:27:38.718Z,2.03
2022-11-16T21:30:40.797Z,1.80
2022-11-16T21:33:53.994Z,1.90
2022-11-16T21:36:56.126Z,1.30
2022-11-16T21:39:57.981Z,1.87
2022-11-16T21:43:02.562Z,1.47
2022-11-16T21:46:07.747Z,2.00
2022-11-16T21:49:12.212Z,1.60
2022-11-16T21:52:14.101Z,1.90
2022-11-16T21:55:17.813Z,1.53
2022-11-16T21:58:22.739Z,1.17
2022-11-16T22:01:24.938Z,1.70
2022-11-16T22:05:05.189Z,1.33
2022-11-16T22:08:11.750Z,1.47
2022-11-16T22:11:15.223Z,2.00
2022-11-16T22:14:17.280Z,2.20
2022-11-16T22:17:19.285Z,2.10
2022-11-16T22:20:27.224Z,1.50
2022-11-16T22:23:30.925Z,1.57
2022-11-16T22:26:33.457Z,1.87
2022-11-16T22:29:40.262Z,1.60
2022-11-16T22:32:42.419Z,1.70
2022-11-16T22:35:46.856Z,1.47
2022-11-16T22:38:54.410Z,2.03
2022-11-16T22:41:57.847Z,1.77
2022-11-16T22:45:02.659Z,1.70
2022-11-16T22:48:10.645Z,1.77
2022-11-16T22:51:22.348Z,1.90
2022-11-16T22:54:31.211Z,1.57
2022-11-16T22:57:33.126Z,1.87
2022-11-16T23:00:40.591Z,1.20
2022-11-16T23:03:43.802Z,2.00
2022-11-16T23:06:45.588Z,1.70
2022-11-16T23:09:47.251Z,2.00
2022-11-16T23:13:07.511Z,1.43
2022-11-16T23:16:09.182Z,1.50
2022-11-16T23:19:31.428Z,1.40
2022-11-16T23:22:51.574Z,1.50
2022-11-16T23:26:11.927Z,1.70
2022-11-16T23:29:13.614Z,1.73
2022-11-16T23:32:15.409Z,1.53
2022-11-16T23:35:17.597Z,1.67
2022-11-16T23:38:19.234Z,1.70
2022-11-16T23:41:39.723Z,1.20
2022-11-16T23:44:41.735Z,1.77
2022-11-16T23:47:43.379Z,1.60
2022-11-16T23:50:46.038Z,1.70
2022-11-16T23:53:47.672Z,1.90
2022-11-16T23:56:49.335Z,1.10
2022-11-16T23:59:50.968Z,1.40
